createdAt,value
2023-05-14T00:00:09.667Z,29.52
2023-05-14T00:03:35.121Z,28.67
2023-05-14T00:07:00.940Z,27.75
2023-05-14T00:10:26.976Z,30.23
2023-05-14T00:13:52.305Z,29.00
2023-05-14T00:17:17.502Z,27.95
2023-05-14T00:20:42.833Z,29.20
2023-05-14T00:24:08.203Z,29.17
2023-05-14T00:27:33.719Z,28.80
2023-05-14T00:30:58.958Z,29.52
2023-05-14T00:34:24.617Z,28.75
2023-05-14T00:37:50.332Z,27.30
2023-05-14T00:41:16.063Z,27.60
2023-05-14T00:44:41.408Z,29.65
2023-05-14T00:48:07.327Z,29.17
2023-05-14T00:51:32.649Z,27.67
2023-05-14T00:54:58.825Z,29.77
2023-05-14T00:58:24.495Z,28.73
2023-05-14T01:01:50.136Z,28.88
2023-05-14T01:05:15.607Z,27.23
2023-05-14T01:09:11.567Z,28.90
2023-05-14T01:13:00.209Z,26.42
2023-05-14T01:16:29.623Z,27.65
2023-05-14T01:19:58.185Z,27.85
2023-05-14T01:23:23.781Z,30.40
2023-05-14T01:26:49.193Z,30.73
2023-05-14T01:30:41.567Z,29.05
2023-05-14T01:34:09.409Z,27.88
2023-05-14T01:37:35.084Z,27.67
2023-05-14T01:41:00.991Z,28.15
2023-05-14T01:44:27.183Z,28.45
2023-05-14T01:47:52.841Z,29.50
2023-05-14T01:51:18.288Z,25.77
2023-05-14T01:54:43.497Z,27.70
2023-05-14T01:58:08.933Z,28.60
2023-05-14T02:01:34.533Z,29.08
2023-05-14T02:04:59.765Z,28.08
2023-05-14T02:08:25.327Z,26.77
2023-05-14T02:11:50.526Z,27.55
2023-05-14T02:15:15.883Z,26.67
2023-05-14T02:18:41.139Z,26.70
2023-05-14T02:22:06.333Z,25.13
2023-05-14T02:25:32.504Z,26.73
2023-05-14T02:28:57.694Z,26.15
2023-05-14T02:32:23.233Z,26.33
2023-05-14T02:35:48.989Z,25.30
2023-05-14T02:39:14.186Z,24.10
2023-05-14T02:42:39.519Z,25.15
2023-05-14T02:46:05.260Z,24.42
2023-05-14T02:49:30.442Z,23.88
2023-05-14T02:52:55.641Z,23.70
2023-05-14T02:56:21.281Z,25.70
2023-05-14T02:59:46.622Z,24.45
2023-05-14T03:03:12.045Z,24.85
2023-05-14T03:06:37.875Z,25.25
2023-05-14T03:10:04.194Z,25.15
2023-05-14T03:13:29.417Z,24.67
2023-05-14T03:16:54.689Z,25.27
2023-05-14T03:20:20.543Z,25.30
2023-05-14T03:23:45.841Z,27.42
2023-05-14T03:27:11.062Z,25.58
2023-05-14T03:30:36.436Z,25.70
2023-05-14T03:34:01.985Z,26.50
2023-05-14T03:37:27.324Z,26.67
2023-05-14T03:40:52.577Z,25.52
2023-05-14T03:44:17.827Z,25.58
2023-05-14T03:47:43.278Z,26.15
2023-05-14T03:51:08.567Z,25.45
2023-05-14T03:54:34.726Z,26.13
2023-05-14T03:57:59.963Z,27.23
2023-05-14T04:01:25.537Z,23.33
2023-05-14T04:04:50.776Z,24.02
2023-05-14T04:08:18.477Z,24.40
2023-05-14T04:11:43.701Z,24.10
2023-05-14T04:15:09.245Z,23.35
2023-05-14T04:18:35.444Z,23.02
2023-05-14T04:22:01.019Z,22.00
2023-05-14T04:25:26.209Z,22.25
2023-05-14T04:28:51.437Z,23.85
2023-05-14T04:32:17.648Z,22.38
2023-05-14T04:35:43.803Z,22.08
2023-05-14T04:39:12.552Z,22.00
2023-05-14T04:42:37.737Z,21.95
2023-05-14T04:46:03.401Z,22.10
2023-05-14T04:49:29.141Z,20.55
2023-05-14T04:52:55.884Z,20.60
2023-05-14T04:56:21.648Z,20.77
2023-05-14T04:59:46.875Z,21.70
2023-05-14T05:03:12.705Z,20.63
2023-05-14T05:06:37.944Z,20.00
2023-05-14T05:10:03.413Z,19.83
2023-05-14T05:13:28.646Z,20.73
2023-05-14T05:16:53.834Z,20.17
2023-05-14T05:20:19.139Z,18.80
2023-05-14T05:23:44.373Z,19.85
2023-05-14T05:27:09.556Z,19.00
2023-05-14T05:30:35.191Z,24.63
2023-05-14T05:34:01.093Z,20.38
2023-05-14T05:37:26.617Z,20.15
2023-05-14T05:40:52.308Z,18.65
2023-05-14T05:44:17.701Z,18.20
2023-05-14T05:47:42.961Z,17.42
2023-05-14T05:51:09.470Z,17.30
2023-05-14T05:54:35.000Z,15.95
2023-05-14T05:58:00.895Z,16.90
2023-05-14T06:01:26.864Z,17.63
2023-05-14T06:04:53.261Z,17.55
2023-05-14T06:08:18.797Z,16.73
2023-05-14T06:11:44.082Z,16.75
2023-05-14T06:15:09.438Z,16.70
2023-05-14T06:18:34.748Z,15.55
2023-05-14T06:21:59.934Z,15.05
2023-05-14T06:25:25.119Z,14.20
2023-05-14T06:28:50.316Z,13.95
2023-05-14T06:32:15.858Z,14.23
2023-05-14T06:35:42.110Z,13.60
2023-05-14T06:39:08.435Z,12.57
2023-05-14T06:42:35.005Z,14.27
2023-05-14T06:46:02.391Z,13.57
2023-05-14T06:49:28.004Z,13.32
2023-05-14T06:52:56.624Z,12.57
2023-05-14T06:56:22.608Z,12.73
2023-05-14T06:59:47.802Z,31.92
2023-05-14T07:03:13.020Z,10.13
2023-05-14T07:06:38.245Z,11.70
2023-05-14T07:10:03.926Z,12.00
2023-05-14T07:13:29.212Z,9.18
2023-05-14T07:16:54.538Z,10.13
2023-05-14T07:20:20.321Z,9.95
2023-05-14T07:23:45.708Z,11.55
2023-05-14T07:27:12.479Z,9.68
2023-05-14T07:30:37.731Z,8.32
2023-05-14T07:34:03.297Z,8.77
2023-05-14T07:37:28.690Z,9.23
2023-05-14T07:40:54.407Z,8.73
2023-05-14T07:44:19.617Z,9.10
2023-05-14T07:47:45.006Z,8.98
2023-05-14T07:51:10.244Z,8.15
2023-05-14T07:54:35.590Z,13.70
2023-05-14T07:58:00.916Z,8.52
2023-05-14T08:01:26.447Z,7.55
2023-05-14T08:04:51.680Z,7.47
2023-05-14T08:08:17.210Z,7.22
2023-05-14T08:11:42.480Z,6.95
2023-05-14T08:15:09.428Z,7.03
2023-05-14T08:18:34.695Z,7.07
2023-05-14T08:22:00.061Z,6.78
2023-05-14T08:25:25.342Z,6.28
2023-05-14T08:28:50.615Z,6.65
2023-05-14T08:32:23.194Z,6.80
2023-05-14T08:35:50.687Z,7.20
2023-05-14T08:39:15.940Z,6.70
2023-05-14T08:42:41.970Z,5.75
2023-05-14T08:46:13.491Z,6.68
2023-05-14T08:49:41.747Z,5.82
2023-05-14T08:53:10.684Z,5.18
2023-05-14T08:56:36.972Z,5.72
2023-05-14T09:00:08.288Z,4.72
2023-05-14T09:03:34.923Z,4.68
2023-05-14T09:07:03.029Z,4.88
2023-05-14T09:10:28.973Z,4.57
2023-05-14T09:13:54.229Z,4.32
2023-05-14T09:17:20.258Z,4.57
2023-05-14T09:20:46.920Z,3.97
2023-05-14T09:24:25.384Z,4.57
2023-05-14T09:27:52.516Z,3.50
2023-05-14T09:31:17.877Z,3.67
2023-05-14T09:34:48.644Z,4.45
2023-05-14T09:41:39.038Z,3.60
2023-05-14T09:45:07.228Z,3.28
2023-05-14T09:48:32.465Z,3.50
2023-05-14T09:51:58.072Z,3.80
2023-05-14T09:55:26.041Z,2.60
2023-05-14T09:58:51.264Z,2.47
2023-05-14T10:02:25.185Z,2.47
2023-05-14T10:05:56.161Z,2.58
2023-05-14T10:09:27.998Z,2.83
2023-05-14T10:12:58.396Z,2.30
2023-05-14T10:16:34.183Z,2.75
2023-05-14T10:20:19.068Z,2.10
2023-05-14T10:23:45.375Z,2.15
2023-05-14T10:27:11.295Z,1.80
2023-05-14T10:30:41.725Z,2.13
2023-05-14T10:34:27.960Z,1.50
2023-05-14T10:37:53.481Z,1.45
2023-05-14T10:41:22.421Z,1.48
2023-05-14T10:44:48.727Z,1.35
2023-05-14T10:48:14.917Z,1.60
2023-05-14T10:51:40.742Z,1.33
2023-05-14T10:55:07.855Z,1.70
2023-05-14T10:58:36.126Z,1.55
2023-05-14T11:02:05.124Z,1.50
2023-05-14T11:05:31.551Z,1.55
2023-05-14T11:08:57.800Z,1.40
2023-05-14T11:12:23.373Z,1.40
2023-05-14T11:15:49.642Z,1.40
2023-05-14T11:19:25.699Z,1.30
2023-05-14T11:22:55.813Z,1.63
2023-05-14T11:26:23.220Z,1.70
2023-05-14T11:29:50.835Z,1.27
2023-05-14T11:33:17.570Z,1.83
2023-05-14T11:36:43.662Z,1.48
2023-05-14T11:40:17.151Z,1.40
2023-05-14T11:43:42.782Z,1.40
2023-05-14T11:47:17.253Z,1.50
2023-05-14T11:50:45.573Z,1.65
2023-05-14T11:54:14.746Z,1.50
2023-05-14T11:57:41.066Z,1.60
2023-05-14T12:01:13.243Z,1.80
2023-05-14T12:04:38.801Z,1.67
2023-05-14T12:08:31.667Z,1.73
2023-05-14T12:11:57.709Z,1.50
2023-05-14T12:15:23.639Z,1.70
2023-05-14T12:18:49.573Z,1.40
2023-05-14T12:22:17.652Z,1.98
2023-05-14T12:25:51.404Z,3.00
2023-05-14T12:29:17.292Z,1.63
2023-05-14T12:32:46.787Z,1.50
2023-05-14T12:36:21.409Z,1.30
2023-05-14T12:39:48.161Z,1.58
2023-05-14T12:43:14.402Z,1.70
2023-05-14T12:46:39.776Z,1.15
2023-05-14T12:50:05.976Z,1.30
2023-05-14T12:53:32.442Z,1.10
2023-05-14T12:56:58.018Z,1.13
2023-05-14T13:00:23.653Z,1.17
2023-05-14T13:03:49.172Z,1.02
2023-05-14T13:07:14.368Z,1.10
2023-05-14T13:10:39.606Z,1.33
2023-05-14T13:14:09.027Z,1.20
2023-05-14T13:17:34.940Z,1.30
2023-05-14T13:21:00.849Z,1.40
2023-05-14T13:24:26.216Z,1.40
2023-05-14T13:27:51.438Z,0.90
2023-05-14T13:31:17.322Z,1.08
2023-05-14T13:34:44.102Z,1.33
2023-05-14T13:38:09.351Z,1.40
2023-05-14T13:41:38.073Z,0.98
2023-05-14T13:45:04.177Z,3.67
2023-05-14T13:48:30.956Z,1.50
2023-05-14T13:51:56.189Z,1.27
2023-05-14T13:55:21.414Z,1.17
2023-05-14T13:58:46.678Z,0.85
2023-05-14T14:02:11.866Z,1.02
2023-05-14T14:05:37.336Z,0.73
2023-05-14T14:09:02.771Z,1.17
2023-05-14T14:12:28.110Z,0.80
2023-05-14T14:15:53.473Z,0.95
2023-05-14T14:19:19.129Z,0.90
2023-05-14T14:22:44.936Z,0.98
2023-05-14T14:26:10.463Z,0.65
2023-05-14T14:29:36.723Z,1.60
2023-05-14T14:33:02.455Z,1.00
2023-05-14T14:36:29.006Z,0.90
2023-05-14T14:39:54.256Z,0.90
2023-05-14T14:43:19.587Z,1.02
2023-05-14T14:46:44.822Z,0.80
2023-05-14T14:50:10.118Z,0.90
2023-05-14T14:53:36.373Z,0.82
2023-05-14T14:57:01.621Z,0.80
2023-05-14T15:00:26.913Z,1.00
2023-05-14T15:03:52.418Z,2.33
2023-05-14T15:07:18.689Z,1.30
2023-05-14T15:10:44.394Z,1.17
2023-05-14T15:14:10.907Z,1.30
2023-05-14T15:17:36.181Z,1.40
2023-05-14T15:21:01.549Z,1.17
2023-05-14T15:24:26.925Z,1.20
2023-05-14T15:27:52.144Z,1.60
2023-05-14T15:31:17.450Z,1.27
2023-05-14T15:34:42.685Z,1.10
2023-05-14T15:38:08.278Z,1.55
2023-05-14T15:41:35.561Z,0.90
2023-05-14T15:45:01.623Z,3.42
2023-05-14T15:48:26.846Z,1.27
2023-05-14T15:51:52.147Z,1.27
2023-05-14T15:55:17.768Z,1.23
2023-05-14T15:58:43.212Z,1.27
2023-05-14T16:02:09.227Z,1.23
2023-05-14T16:05:34.727Z,1.13
2023-05-14T16:09:01.492Z,1.00
2023-05-14T16:12:26.736Z,1.05
2023-05-14T16:15:52.013Z,1.42
2023-05-14T16:19:18.040Z,2.03
2023-05-14T16:22:43.509Z,1.38
2023-05-14T16:26:08.948Z,1.30
2023-05-14T16:29:34.215Z,1.30
2023-05-14T16:32:59.478Z,1.30
2023-05-14T16:36:25.363Z,1.58
2023-05-14T16:39:51.016Z,1.65
2023-05-14T16:43:16.370Z,1.33
2023-05-14T16:46:41.830Z,1.55
2023-05-14T16:50:08.292Z,2.25
2023-05-14T16:53:33.489Z,1.27
2023-05-14T16:56:58.690Z,1.40
2023-05-14T17:00:23.982Z,2.15
2023-05-14T17:03:49.196Z,1.27
2023-05-14T17:07:14.537Z,1.27
2023-05-14T17:10:41.442Z,1.40
2023-05-14T17:14:06.702Z,1.33
2023-05-14T17:17:32.724Z,1.77
2023-05-14T17:20:58.704Z,2.13
2023-05-14T17:24:24.407Z,1.58
2023-05-14T17:27:50.022Z,1.88
2023-05-14T17:31:15.690Z,2.22
2023-05-14T17:34:41.053Z,2.90
2023-05-14T17:38:06.332Z,3.38
2023-05-14T17:41:31.732Z,5.07
2023-05-14T17:44:58.090Z,2.20
2023-05-14T17:48:24.167Z,2.22
2023-05-14T17:52:00.300Z,1.85
2023-05-14T17:55:26.693Z,2.33
2023-05-14T17:58:52.356Z,1.75
2023-05-14T18:02:17.899Z,2.15
2023-05-14T18:05:43.202Z,1.58
2023-05-14T18:09:17.176Z,1.75
2023-05-14T18:12:42.990Z,1.73
2023-05-14T18:16:08.401Z,1.10
2023-05-14T18:19:34.759Z,2.15
2023-05-14T18:22:59.983Z,1.55
2023-05-14T18:26:25.428Z,2.13
2023-05-14T18:29:51.766Z,1.73
2023-05-14T18:33:16.964Z,1.85
2023-05-14T18:36:42.275Z,3.28
2023-05-14T18:40:07.920Z,7.25
2023-05-14T18:43:33.424Z,2.25
2023-05-14T18:46:59.629Z,1.77
2023-05-14T18:50:24.844Z,1.58
2023-05-14T18:53:50.060Z,2.00
2023-05-14T18:57:15.353Z,2.60
2023-05-14T19:00:40.722Z,1.50
2023-05-14T19:04:06.455Z,5.85
2023-05-14T19:07:31.714Z,2.20
2023-05-14T19:10:56.925Z,2.17
2023-05-14T19:14:22.161Z,2.10
2023-05-14T19:17:47.575Z,1.58
2023-05-14T19:21:14.880Z,1.23
2023-05-14T19:24:40.212Z,1.40
2023-05-14T19:28:05.582Z,1.55
2023-05-14T19:31:30.816Z,2.30
2023-05-14T19:34:56.060Z,2.90
2023-05-14T19:38:21.349Z,3.83
2023-05-14T19:41:46.545Z,2.95
2023-05-14T19:45:11.771Z,2.47
2023-05-14T19:48:38.772Z,1.80
2023-05-14T19:52:04.083Z,1.50
2023-05-14T19:55:29.261Z,2.00
2023-05-14T19:58:54.586Z,1.83
2023-05-14T20:02:21.701Z,1.90
2023-05-14T20:05:46.975Z,1.80
2023-05-14T20:09:13.518Z,2.15
2023-05-14T20:12:38.746Z,2.08
2023-05-14T20:16:04.649Z,2.15
2023-05-14T20:19:29.863Z,2.28
2023-05-14T20:22:55.358Z,3.10
2023-05-14T20:26:21.244Z,1.95
2023-05-14T20:29:47.024Z,2.53
2023-05-14T20:33:13.857Z,2.25
2023-05-14T20:36:39.075Z,1.77
2023-05-14T20:40:06.140Z,2.03
2023-05-14T20:43:31.403Z,2.00
2023-05-14T20:46:56.696Z,1.45
2023-05-14T20:50:22.860Z,1.70
2023-05-14T20:53:48.042Z,1.73
2023-05-14T20:57:15.263Z,1.48
2023-05-14T21:00:40.998Z,1.70
2023-05-14T21:04:06.793Z,1.90
2023-05-14T21:07:32.271Z,2.70
2023-05-14T21:10:59.632Z,1.98
2023-05-14T21:14:25.043Z,2.00
2023-05-14T21:17:50.536Z,2.10
2023-05-14T21:21:15.768Z,2.30
2023-05-14T21:24:41.012Z,2.30
2023-05-14T21:28:06.379Z,3.13
2023-05-14T21:31:31.627Z,14.60
2023-05-14T21:34:56.877Z,14.60
2023-05-14T21:38:22.151Z,5.05
2023-05-14T21:41:47.482Z,3.70
2023-05-14T21:45:12.749Z,3.78
2023-05-14T21:48:38.063Z,3.50
2023-05-14T21:52:03.804Z,3.53
2023-05-14T21:55:29.132Z,3.10
2023-05-14T21:58:56.086Z,4.45
2023-05-14T22:02:21.688Z,4.63
2023-05-14T22:05:46.918Z,5.28
2023-05-14T22:09:12.368Z,4.90
2023-05-14T22:12:37.613Z,5.25
2023-05-14T22:16:12.197Z,5.35
2023-05-14T22:19:38.756Z,5.72
2023-05-14T22:23:03.946Z,6.97
2023-05-14T22:26:29.196Z,6.57
2023-05-14T22:29:55.209Z,5.28
2023-05-14T22:33:20.543Z,4.63
2023-05-14T22:36:45.802Z,4.93
2023-05-14T22:40:11.750Z,5.47
2023-05-14T22:43:36.975Z,5.95
2023-05-14T22:47:02.686Z,5.93
2023-05-14T22:50:27.850Z,8.80
2023-05-14T22:53:53.033Z,15.43
2023-05-14T22:57:18.294Z,17.10
2023-05-14T23:00:43.497Z,12.50
2023-05-14T23:04:08.715Z,14.82
2023-05-14T23:07:34.386Z,6.95
2023-05-14T23:10:59.572Z,5.95
2023-05-14T23:14:24.769Z,7.95
2023-05-14T23:17:49.994Z,6.53
2023-05-14T23:21:15.329Z,8.60
2023-05-14T23:24:40.533Z,4.78
2023-05-14T23:28:06.233Z,3.88
2023-05-14T23:31:32.245Z,4.65
2023-05-14T23:34:57.498Z,5.47
2023-05-14T23:38:22.958Z,5.18
2023-05-14T23:41:48.184Z,3.88
2023-05-14T23:45:13.687Z,4.03
2023-05-14T23:48:39.451Z,4.60
2023-05-14T23:52:05.057Z,4.90
2023-05-14T23:55:30.317Z,4.68
2023-05-14T23:58:55.912Z,4.70
